Sign-in with your pilot id or email, or register

ICAO: VHHH Name / Country: Hong Kong International Airport / Hong Kong
Latitude: 22.3146 Longitude: 113.932
Total Arrivals:
Strict Standards: Non-static method AirportData::getarrflights() should not be called statically, assuming $this from incompatible context in /var/www/customers/vh-7192/web/home/phpvms/core/templates/airport_info.tpl on line 18
1
Total Departures:
Strict Standards: Non-static method AirportData::getdeptflights() should not be called statically, assuming $this from incompatible context in /var/www/customers/vh-7192/web/home/phpvms/core/templates/airport_info.tpl on line 21
1
Latest Arrival: MTA5PM (RPLL-VHHH) Tibor Berces Latest Departure: MTA5PM (VHHH-ZBAA) Tibor Berces
Metar: VHHH 172230Z 14003KT 080V170 9999 FEW020 27/25 Q1010 NOSIG
More info

Charts for VHHH


NOTAM


Warning: file_get_contents(http://api.vateud.net/notams/VHHH.json): failed to open stream: Redirection limit reached, aborting in /var/www/customers/vh-7192/web/home/phpvms/core/common/NOTAMSData.class.php on line 18

Warning: Invalid argument supplied for foreach() in /var/www/customers/vh-7192/web/home/phpvms/core/common/NOTAMSData.class.php on line 22

Hong Kong International Airport